Time;durP1;ratioP1;P1;durP2;ratioP2;P2;SDS_P1;SDS_P2;PMS_P1;PMS_P2;Temp;Humidity;BMP_temperature;BMP_pressure;BME280_temperature;BME280_humidity;BME280_pressure;Samples;Min_cycle;Max_cycle;Signal;HPM_P1;HPM_P2
2022/12/31 00:01:44;;;;;;;0.10;0.10;;;;;;;12.12;80.69;95431.84;4395972;32;20202;-60
2022/12/31 00:04:09;;;;;;;0.00;0.00;;;;;;;12.16;80.55;95436.25;4390448;32;20261;-60
2022/12/31 00:06:35;;;;;;;0.10;0.10;;;;;;;12.18;80.46;95435.97;4393725;32;20336;-61
2022/12/31 00:09:04;;;;;;;0.20;0.17;;;;;;;12.13;80.74;95441.38;4389197;32;20184;-60
2022/12/31 00:11:30;;;;;;;0.10;0.10;;;;;;;12.10;81.10;95442.78;4393561;32;20176;-60
2022/12/31 00:13:57;;;;;;;0.00;0.00;;;;;;;12.18;80.48;95439.41;4394826;32;20184;-61
2022/12/31 00:16:29;;;;;;;0.00;0.00;;;;;;;12.29;79.98;95440.75;4397569;32;20180;-61
2022/12/31 00:18:58;;;;;;;0.00;0.00;;;;;;;12.25;80.26;95444.31;4400479;32;20184;-60
2022/12/31 00:21:24;;;;;;;0.00;0.00;;;;;;;12.18;80.71;95438.62;4398111;32;20243;-60
2022/12/31 00:23:49;;;;;;;0.00;0.00;;;;;;;12.22;80.42;95429.75;4391751;32;20180;-60
2022/12/31 00:26:18;;;;;;;0.00;0.00;;;;;;;12.25;80.41;95429.16;4397084;32;20282;-60
2022/12/31 00:28:44;;;;;;;0.00;0.00;;;;;;;12.31;80.15;95432.47;4389167;32;20247;-60
2022/12/31 00:31:12;;;;;;;0.10;0.10;;;;;;;12.41;79.56;95442.09;4392349;32;20184;-61
2022/12/31 00:33:38;;;;;;;0.10;0.10;;;;;;;12.48;79.18;95429.16;4392232;32;20184;-60
2022/12/31 00:36:19;;;;;;;0.03;0.03;;;;;;;12.42;79.56;95423.19;4399470;32;20285;-60
2022/12/31 00:38:46;;;;;;;0.00;0.00;;;;;;;12.42;80.62;95422.38;4393027;32;20172;-60
2022/12/31 00:41:13;;;;;;;0.00;0.00;;;;;;;12.43;80.39;95426.63;4383314;32;20201;-60
2022/12/31 00:43:39;;;;;;;0.00;0.00;;;;;;;12.45;80.27;95430.56;4403237;32;20204;-60
2022/12/31 00:46:05;;;;;;;0.00;0.00;;;;;;;12.53;79.62;95443.13;4377502;32;20177;-60
2022/12/31 00:48:31;;;;;;;0.10;0.10;;;;;;;12.65;78.96;95439.94;4378595;32;20207;-60
2022/12/31 00:50:57;;;;;;;1.70;0.20;;;;;;;12.78;78.39;95440.94;4383055;32;20184;-60
2022/12/31 00:53:24;;;;;;;0.00;0.00;;;;;;;12.71;78.68;95454.66;4389662;32;20184;-60
2022/12/31 00:55:49;;;;;;;0.00;0.00;;;;;;;12.75;78.49;95447.66;4403852;32;20203;-60
2022/12/31 00:58:14;;;;;;;0.00;0.00;;;;;;;12.85;77.99;95449.31;4417312;32;20194;-60
2022/12/31 01:00:40;;;;;;;0.00;0.00;;;;;;;12.78;78.57;95467.56;4416058;32;20181;-60
2022/12/31 01:03:06;;;;;;;0.00;0.00;;;;;;;12.91;77.79;95456.84;4405432;32;20895;-60
2022/12/31 01:05:33;;;;;;;0.00;0.00;;;;;;;12.83;78.58;95478.09;4407153;32;20179;-60
2022/12/31 01:07:59;;;;;;;0.00;0.00;;;;;;;12.77;78.83;95474.75;4395089;32;20180;-60
2022/12/31 01:13:08;;;;;;;0.00;0.00;;;;;;;12.75;79.18;95482.25;4390755;32;20215;-60
2022/12/31 01:15:36;;;;;;;0.00;0.00;;;;;;;12.88;78.56;95486.75;4405988;32;20176;-61
2022/12/31 01:18:06;;;;;;;0.10;0.10;;;;;;;12.91;78.50;95491.44;4402042;32;20237;-60
2022/12/31 01:20:37;;;;;;;0.00;0.00;;;;;;;12.94;78.72;95488.19;4394887;32;20180;-60
2022/12/31 01:23:03;;;;;;;0.10;0.10;;;;;;;12.97;78.53;95514.22;4403409;32;20255;-60
2022/12/31 01:25:28;;;;;;;0.00;0.00;;;;;;;12.86;78.99;95512.91;4404649;32;20176;-60
2022/12/31 01:27:53;;;;;;;0.00;0.00;;;;;;;12.89;79.15;95504.28;4410567;32;20220;-60
2022/12/31 01:30:19;;;;;;;0.00;0.00;;;;;;;12.98;78.76;95517.66;4394336;32;20198;-60
2022/12/31 01:32:44;;;;;;;0.00;0.00;;;;;;;13.00;78.75;95524.25;4399556;32;20180;-60
2022/12/31 01:35:09;;;;;;;0.00;0.00;;;;;;;12.94;79.15;95530.00;4397600;32;20176;-60
2022/12/31 01:37:35;;;;;;;0.00;0.00;;;;;;;12.97;79.08;95530.19;4397228;32;20176;-63
2022/12/31 01:40:00;;;;;;;0.17;0.17;;;;;;;12.97;78.93;95546.19;4391170;32;20214;-62
2022/12/31 01:42:25;;;;;;;0.03;0.03;;;;;;;13.00;78.83;95545.56;4399131;32;20176;-62
2022/12/31 01:44:53;;;;;;;0.00;0.00;;;;;;;13.05;78.90;95542.00;4388240;32;20189;-63
2022/12/31 01:47:33;;;;;;;0.00;0.00;;;;;;;13.15;78.10;95551.63;4395284;32;20192;-62
2022/12/31 01:50:08;;;;;;;0.00;0.00;;;;;;;13.16;78.22;95553.22;4400559;32;20199;-62
2022/12/31 01:52:39;;;;;;;0.00;0.00;;;;;;;13.14;78.32;95550.03;4406429;32;20223;-63
2022/12/31 01:55:15;;;;;;;0.00;0.00;;;;;;;13.18;78.03;95540.38;4385040;32;20189;-62
2022/12/31 01:57:42;;;;;;;0.07;0.07;;;;;;;13.27;77.54;95547.34;4377502;32;20221;-63
2022/12/31 02:00:08;;;;;;;2.37;0.20;;;;;;;13.15;78.11;95546.28;4390677;32;20192;-63
2022/12/31 02:02:35;;;;;;;0.00;0.00;;;;;;;13.14;78.03;95544.72;4394283;32;20236;-63
2022/12/31 02:05:04;;;;;;;0.10;0.10;;;;;;;13.09;78.40;95549.06;4401882;32;20210;-63
2022/12/31 02:07:29;;;;;;;0.03;0.03;;;;;;;13.05;78.60;95548.13;4398051;32;20202;-63
2022/12/31 02:09:55;;;;;;;0.03;0.03;;;;;;;13.15;78.05;95548.94;4399618;32;20263;-63
2022/12/31 02:12:21;;;;;;;0.00;0.00;;;;;;;13.19;77.52;95553.41;4398389;32;20185;-63
2022/12/31 02:14:50;;;;;;;0.10;0.10;;;;;;;13.14;77.76;95550.03;4396965;32;20208;-63
2022/12/31 02:17:33;;;;;;;0.10;0.10;;;;;;;13.11;77.93;95540.00;4396567;32;20177;-63
2022/12/31 02:20:17;;;;;;;0.00;0.00;;;;;;;13.01;78.10;95546.34;4399279;32;20224;-63
2022/12/31 02:23:12;;;;;;;0.37;0.20;;;;;;;13.07;78.13;95543.28;4417577;32;20192;-63
2022/12/31 02:25:44;;;;;;;0.00;0.00;;;;;;;13.05;77.92;95542.78;4392566;32;20251;-63
2022/12/31 02:28:15;;;;;;;0.00;0.00;;;;;;;13.07;77.82;95540.63;4408259;32;20234;-63
2022/12/31 02:30:44;;;;;;;0.00;0.00;;;;;;;13.06;77.85;95548.91;4405228;32;20199;-63
2022/12/31 02:33:20;;;;;;;0.00;0.00;;;;;;;12.93;78.18;95539.09;4383387;32;20200;-63
2022/12/31 02:35:59;;;;;;;0.00;0.00;;;;;;;12.92;78.34;95543.63;4393622;32;20203;-63
2022/12/31 02:38:32;;;;;;;0.00;0.00;;;;;;;12.99;78.03;95537.88;4397870;32;20215;-62
2022/12/31 02:40:59;;;;;;;0.00;0.00;;;;;;;12.99;77.75;95544.00;4398814;32;20199;-63
2022/12/31 02:43:24;;;;;;;0.10;0.10;;;;;;;12.91;78.32;95541.25;4381799;32;20249;-63
2022/12/31 02:46:08;;;;;;;0.00;0.00;;;;;;;12.95;78.04;95543.03;4394343;32;20180;-63
2022/12/31 02:48:53;;;;;;;0.00;0.00;;;;;;;12.90;78.13;95545.00;4388356;32;20223;-63
2022/12/31 02:51:32;;;;;;;0.00;0.00;;;;;;;12.92;77.91;95540.16;4415118;32;20213;-63
2022/12/31 02:54:12;;;;;;;0.00;0.00;;;;;;;12.94;77.79;95538.00;4404063;32;20199;-63
2022/12/31 02:57:25;;;;;;;0.00;0.00;;;;;;;12.96;77.72;95541.94;4391664;32;20259;-63
2022/12/31 03:02:45;;;;;;;0.00;0.00;;;;;;;12.97;77.76;95545.38;4381151;32;20226;-63
2022/12/31 03:05:14;;;;;;;0.40;0.20;;;;;;;12.90;77.94;95543.13;4382697;32;20247;-63
2022/12/31 03:07:41;;;;;;;0.00;0.00;;;;;;;13.01;77.46;95547.16;4379579;32;20308;-63
2022/12/31 03:10:08;;;;;;;0.00;0.00;;;;;;;13.08;77.13;95547.53;4403865;32;20333;-62
2022/12/31 03:12:46;;;;;;;0.00;0.00;;;;;;;13.20;76.68;95554.19;4381139;32;20177;-62
2022/12/31 03:15:19;;;;;;;0.00;0.00;;;;;;;13.18;76.57;95561.69;4378759;32;20203;-63
2022/12/31 03:17:51;;;;;;;0.00;0.00;;;;;;;13.17;76.64;95554.78;4386028;32;20185;-63
2022/12/31 03:23:06;;;;;;;0.00;0.00;;;;;;;13.11;76.69;95566.63;4393435;32;20207;-62
2022/12/31 03:25:36;;;;;;;0.00;0.00;;;;;;;13.21;76.23;95555.78;4392733;32;20180;-63
2022/12/31 03:28:05;;;;;;;0.10;0.10;;;;;;;13.27;75.87;95565.22;4392702;32;20172;-63
2022/12/31 03:30:31;;;;;;;0.00;0.00;;;;;;;13.25;75.75;95565.53;4390711;32;20191;-63
2022/12/31 03:32:57;;;;;;;0.00;0.00;;;;;;;13.30;75.84;95567.28;4397565;32;20192;-63
2022/12/31 03:35:25;;;;;;;0.00;0.00;;;;;;;13.23;75.76;95575.69;4405000;32;20245;-63
2022/12/31 03:37:51;;;;;;;0.00;0.00;;;;;;;13.22;75.86;95570.66;4388866;32;20222;-63
2022/12/31 03:40:18;;;;;;;0.00;0.00;;;;;;;13.22;75.94;95557.34;4397026;32;20195;-63
2022/12/31 03:42:43;;;;;;;0.00;0.00;;;;;;;13.33;75.36;95575.44;4404159;32;20222;-63
2022/12/31 03:45:10;;;;;;;0.00;0.00;;;;;;;13.36;75.14;95580.16;4397886;32;20196;-63
2022/12/31 03:47:36;;;;;;;0.00;0.00;;;;;;;13.36;75.04;95582.03;4406200;32;20201;-63
2022/12/31 03:50:01;;;;;;;0.00;0.00;;;;;;;13.57;73.86;95585.78;4395522;32;20221;-63
2022/12/31 03:52:27;;;;;;;0.00;0.00;;;;;;;13.51;74.29;95583.56;4395910;32;20173;-63
2022/12/31 03:54:52;;;;;;;0.00;0.00;;;;;;;13.52;74.04;95585.09;4398238;32;20233;-63
2022/12/31 03:57:17;;;;;;;0.00;0.00;;;;;;;13.62;73.49;95580.31;4392634;32;20241;-63
2022/12/31 03:59:43;;;;;;;0.47;0.47;;;;;;;13.54;73.74;95590.91;4389954;32;20194;-63
2022/12/31 04:02:08;;;;;;;0.10;0.10;;;;;;;13.59;73.91;95593.47;4396198;32;20229;-63
2022/12/31 04:04:33;;;;;;;0.10;0.10;;;;;;;13.60;73.47;95579.84;4409517;32;20239;-63
2022/12/31 04:06:59;;;;;;;0.10;0.10;;;;;;;13.50;74.19;95584.66;4398865;32;20229;-62
2022/12/31 04:09:24;;;;;;;0.00;0.00;;;;;;;13.53;74.11;95592.78;4397092;32;20238;-63
2022/12/31 04:11:49;;;;;;;0.00;0.00;;;;;;;13.60;73.83;95600.38;4394955;32;20181;-63
2022/12/31 04:14:16;;;;;;;0.00;0.00;;;;;;;13.60;73.82;95601.16;4395708;32;20234;-62
2022/12/31 04:16:42;;;;;;;0.00;0.00;;;;;;;13.65;73.45;95597.59;4397892;32;20194;-62
2022/12/31 04:19:07;;;;;;;0.00;0.00;;;;;;;13.57;73.84;95607.09;4399338;32;20275;-63
2022/12/31 04:21:32;;;;;;;0.00;0.00;;;;;;;13.58;73.79;95613.22;4400980;32;20187;-63
2022/12/31 04:23:58;;;;;;;0.00;0.00;;;;;;;13.53;74.23;95608.00;4407969;32;20178;-63
2022/12/31 04:26:23;;;;;;;0.00;0.00;;;;;;;13.52;74.15;95609.88;4380226;32;20196;-63
2022/12/31 04:28:48;;;;;;;0.00;0.00;;;;;;;13.57;74.12;95623.09;4377866;32;20195;-63
2022/12/31 04:31:13;;;;;;;0.00;0.00;;;;;;;13.58;73.73;95616.66;4391271;32;20200;-63
2022/12/31 04:33:39;;;;;;;0.00;0.00;;;;;;;13.63;73.40;95616.53;4391777;32;20184;-63
2022/12/31 04:36:06;;;;;;;0.00;0.00;;;;;;;13.68;73.51;95632.44;4390741;32;20189;-63
2022/12/31 04:38:32;;;;;;;0.10;0.10;;;;;;;13.71;73.26;95634.47;4391076;32;20188;-63
2022/12/31 04:41:15;;;;;;;0.27;0.10;;;;;;;13.70;73.00;95634.78;4401107;32;20207;-62
2022/12/31 04:43:42;;;;;;;0.00;0.00;;;;;;;13.63;73.61;95629.09;4414848;32;20173;-63
2022/12/31 04:46:08;;;;;;;0.00;0.00;;;;;;;13.70;72.96;95627.56;4389910;32;20259;-63
2022/12/31 04:48:34;;;;;;;0.00;0.00;;;;;;;13.66;73.26;95633.81;4394738;32;20261;-63
2022/12/31 04:50:59;;;;;;;0.03;0.03;;;;;;;13.76;72.80;95631.66;4405790;32;20184;-63
2022/12/31 04:53:24;;;;;;;0.00;0.00;;;;;;;13.79;72.49;95630.28;4403827;32;20225;-62
2022/12/31 04:55:50;;;;;;;0.00;0.00;;;;;;;13.81;72.57;95632.63;4401912;32;20192;-63
2022/12/31 04:58:16;;;;;;;0.00;0.00;;;;;;;13.90;72.23;95633.47;4414303;32;20188;-63
2022/12/31 05:00:43;;;;;;;0.00;0.00;;;;;;;13.93;72.16;95640.84;4394069;32;20180;-62
2022/12/31 05:03:09;;;;;;;0.00;0.00;;;;;;;14.02;71.71;95634.47;4395064;32;20223;-63
2022/12/31 05:05:38;;;;;;;0.00;0.00;;;;;;;13.94;72.56;95648.53;4392741;32;20238;-63
2022/12/31 05:08:03;;;;;;;0.00;0.00;;;;;;;13.96;72.25;95635.69;4408764;32;20194;-62
2022/12/31 05:10:28;;;;;;;0.00;0.00;;;;;;;13.99;72.10;95639.63;4404059;32;20184;-63
2022/12/31 05:12:54;;;;;;;0.10;0.10;;;;;;;14.10;71.81;95627.63;4396841;32;20295;-63
2022/12/31 05:15:19;;;;;;;0.00;0.00;;;;;;;14.07;71.76;95642.34;4404675;32;20212;-63
2022/12/31 05:17:44;;;;;;;0.00;0.00;;;;;;;14.10;71.90;95643.63;4404691;32;20191;-63
2022/12/31 05:20:10;;;;;;;0.00;0.00;;;;;;;14.01;72.30;95642.78;4405880;32;20176;-63
2022/12/31 05:22:35;;;;;;;0.00;0.00;;;;;;;13.99;72.43;95639.63;4398567;32;20184;-63
2022/12/31 05:25:00;;;;;;;0.10;0.10;;;;;;;14.08;72.12;95640.47;4392962;32;20198;-62
2022/12/31 05:27:27;;;;;;;0.00;0.00;;;;;;;14.05;72.18;95646.41;4405154;32;20216;-63
2022/12/31 05:29:52;;;;;;;0.00;0.00;;;;;;;14.05;72.17;95649.09;4395381;32;20169;-63
2022/12/31 05:32:18;;;;;;;0.23;0.20;;;;;;;14.05;72.01;95654.41;4394822;32;20172;-63
2022/12/31 05:34:43;;;;;;;0.00;0.00;;;;;;;14.01;72.35;95664.13;4398587;32;20225;-63
2022/12/31 05:37:09;;;;;;;0.00;0.00;;;;;;;13.99;72.49;95660.97;4399921;32;20180;-62
2022/12/31 05:39:34;;;;;;;0.00;0.00;;;;;;;13.91;72.83;95659.06;4414303;32;20216;-63
2022/12/31 05:41:59;;;;;;;0.00;0.00;;;;;;;13.87;73.10;95658.09;4399226;32;20234;-63
2022/12/31 05:44:24;;;;;;;0.00;0.00;;;;;;;13.93;72.74;95667.53;4395641;32;20184;-63
2022/12/31 05:46:50;;;;;;;0.00;0.00;;;;;;;13.87;73.08;95664.22;4389449;32;20230;-63
2022/12/31 05:49:15;;;;;;;0.00;0.00;;;;;;;13.84;73.48;95656.03;4401608;32;20172;-62
2022/12/31 05:51:41;;;;;;;0.00;0.00;;;;;;;13.86;73.32;95646.63;4382144;32;20199;-62
2022/12/31 05:54:06;;;;;;;0.00;0.00;;;;;;;13.86;73.15;95649.31;4389833;32;21910;-62
2022/12/31 05:56:31;;;;;;;0.10;0.10;;;;;;;13.93;72.97;95643.50;4397189;32;20188;-62
2022/12/31 05:58:57;;;;;;;0.00;0.00;;;;;;;13.93;72.82;95646.19;4382086;32;20173;-62
2022/12/31 06:01:22;;;;;;;0.00;0.00;;;;;;;13.93;72.88;95648.84;4390994;32;20194;-61
2022/12/31 06:03:47;;;;;;;0.00;0.00;;;;;;;13.91;72.86;95643.84;4405234;32;20188;-62
2022/12/31 06:06:13;;;;;;;0.00;0.00;;;;;;;13.89;72.99;95640.69;4397026;32;20240;-62
2022/12/31 06:08:38;;;;;;;0.10;0.10;;;;;;;13.88;73.01;95646.34;4393549;32;20185;-62
2022/12/31 06:11:03;;;;;;;0.00;0.00;;;;;;;13.84;73.28;95654.16;4393089;32;20173;-62
2022/12/31 06:13:29;;;;;;;0.00;0.00;;;;;;;13.81;73.42;95653.97;4393459;32;20187;-62
2022/12/31 06:15:54;;;;;;;0.07;0.07;;;;;;;13.80;73.47;95663.06;4391003;32;20229;-62
2022/12/31 06:18:19;;;;;;;0.20;0.20;;;;;;;13.72;73.82;95662.69;4392587;32;20177;-62
2022/12/31 06:20:45;;;;;;;0.00;0.00;;;;;;;13.74;73.79;95668.50;4406062;32;20187;-62
2022/12/31 06:23:10;;;;;;;0.00;0.00;;;;;;;13.69;73.94;95668.66;4395659;32;20176;-62
2022/12/31 06:25:35;;;;;;;0.10;0.10;;;;;;;13.62;74.30;95668.28;4393263;32;20184;-62
2022/12/31 06:28:02;;;;;;;0.30;0.10;;;;;;;13.57;74.34;95670.28;4390761;32;20184;-62
2022/12/31 06:30:27;;;;;;;0.00;0.00;;;;;;;13.62;74.12;95676.28;4393326;32;20211;-62
2022/12/31 06:32:54;;;;;;;0.10;0.10;;;;;;;13.58;74.33;95674.53;4398249;32;20176;-62
2022/12/31 06:35:19;;;;;;;0.10;0.10;;;;;;;13.63;73.90;95680.53;4388408;32;20199;-62
2022/12/31 06:37:45;;;;;;;2.90;0.20;;;;;;;13.59;74.23;95684.88;4404938;32;20176;-62
2022/12/31 06:40:11;;;;;;;0.00;0.00;;;;;;;13.59;74.12;95689.44;4390240;32;20203;-62
2022/12/31 06:42:36;;;;;;;0.00;0.00;;;;;;;13.59;74.31;95690.22;4395000;32;20251;-62
2022/12/31 06:45:01;;;;;;;0.00;0.00;;;;;;;13.56;74.48;95695.37;4398607;32;20176;-62
2022/12/31 06:47:27;;;;;;;0.00;0.00;;;;;;;13.57;74.17;95696.94;4378883;32;20222;-63
2022/12/31 06:49:52;;;;;;;0.00;0.00;;;;;;;13.55;74.32;95704.44;4400075;32;20184;-61
2022/12/31 06:52:18;;;;;;;0.00;0.00;;;;;;;13.54;74.64;95703.66;4397949;32;20190;-62
2022/12/31 06:54:43;;;;;;;0.00;0.00;;;;;;;13.62;74.58;95704.81;4391635;32;20202;-62
2022/12/31 06:57:09;;;;;;;0.20;0.20;;;;;;;13.57;75.26;95697.72;4398201;32;20275;-62
2022/12/31 06:59:35;;;;;;;0.00;0.00;;;;;;;13.57;76.00;95697.72;4399476;32;20243;-61
2022/12/31 07:02:13;;;;;;;0.00;0.00;;;;;;;13.50;76.63;95692.06;4394403;32;20198;-62
2022/12/31 07:05:06;;;;;;;0.07;0.07;;;;;;;13.52;76.49;95700.50;4408011;32;20171;-61
2022/12/31 07:07:37;;;;;;;0.50;0.50;;;;;;;13.53;76.46;95696.75;4389365;32;20233;-62
2022/12/31 07:10:16;;;;;;;0.50;0.50;;;;;;;13.49;76.85;95705.69;4402754;32;20172;-62
2022/12/31 07:12:57;;;;;;;1.30;0.87;;;;;;;13.48;76.88;95699.56;4415878;32;20184;-62
2022/12/31 07:15:53;;;;;;;0.63;0.63;;;;;;;13.44;76.73;95714.56;4397426;32;20221;-62
2022/12/31 07:18:23;;;;;;;0.20;0.20;;;;;;;13.44;76.58;95709.25;4377017;32;20181;-62
2022/12/31 07:20:48;;;;;;;2.40;1.23;;;;;;;13.50;76.25;95718.69;4410882;32;20187;-61
2022/12/31 07:23:14;;;;;;;0.87;0.87;;;;;;;13.41;76.73;95712.50;4403944;32;20181;-62
2022/12/31 07:25:50;;;;;;;0.30;0.30;;;;;;;13.39;76.91;95715.47;4397002;32;20227;-62
2022/12/31 07:28:31;;;;;;;0.30;0.30;;;;;;;13.34;77.20;95718.25;4401017;32;20195;-62
2022/12/31 07:31:05;;;;;;;0.10;0.10;;;;;;;13.36;76.80;95723.28;4394126;32;20181;-62
2022/12/31 07:33:42;;;;;;;0.60;0.60;;;;;;;13.36;76.56;95725.94;4402067;32;20298;-62
2022/12/31 07:36:35;;;;;;;0.27;0.27;;;;;;;13.32;76.18;95728.41;4391693;32;20262;-61
2022/12/31 07:39:13;;;;;;;0.20;0.20;;;;;;;13.30;76.08;95733.25;4396114;32;20199;-62
2022/12/31 07:41:57;;;;;;;0.40;0.40;;;;;;;13.32;75.82;95732.94;4391561;32;20180;-62
2022/12/31 07:44:31;;;;;;;0.20;0.20;;;;;;;13.31;75.47;95734.03;4382750;32;20172;-62
2022/12/31 07:46:59;;;;;;;0.27;0.27;;;;;;;13.35;74.86;95732.34;4394243;32;20236;-62
2022/12/31 07:49:27;;;;;;;0.50;0.50;;;;;;;13.39;74.25;95744.00;4375176;32;20237;-62
2022/12/31 07:51:53;;;;;;;0.50;0.50;;;;;;;13.36;74.00;95745.38;4388355;32;20217;-61
2022/12/31 07:54:18;;;;;;;0.30;0.30;;;;;;;13.29;73.86;95741.56;4401308;32;20192;-62
2022/12/31 07:56:44;;;;;;;0.10;0.10;;;;;;;13.28;73.21;95751.44;4390724;32;20196;-62
2022/12/31 07:59:47;;;;;;;0.10;0.10;;;;;;;13.29;72.45;95760.22;4397616;32;20188;-62
2022/12/31 08:02:50;;;;;;;0.10;0.10;;;;;;;13.33;72.15;95761.16;4392103;32;20198;-62
2022/12/31 08:05:52;;;;;;;0.47;0.47;;;;;;;13.27;72.62;95757.84;4395388;32;20225;-62
2022/12/31 08:08:28;;;;;;;0.00;0.00;;;;;;;13.29;71.51;95765.53;4379075;32;20179;-62
2022/12/31 08:11:29;;;;;;;0.10;0.10;;;;;;;13.24;72.13;95762.97;4389423;32;20190;-62
2022/12/31 08:13:59;;;;;;;0.10;0.10;;;;;;;13.26;71.95;95768.81;4379537;32;20258;-62
2022/12/31 08:16:24;;;;;;;0.07;0.07;;;;;;;13.20;72.04;95775.31;4382297;32;20193;-61
2022/12/31 08:18:50;;;;;;;0.20;0.20;;;;;;;13.23;71.94;95774.72;4401953;32;20176;-62
2022/12/31 08:21:38;;;;;;;0.00;0.00;;;;;;;13.21;71.70;95771.56;4396034;32;20177;-62
2022/12/31 08:24:23;;;;;;;0.13;0.13;;;;;;;13.21;70.97;95776.91;4382077;32;20203;-62
2022/12/31 08:27:17;;;;;;;0.00;0.00;;;;;;;13.26;70.88;95772.25;4391105;32;20240;-62
2022/12/31 08:29:55;;;;;;;0.00;0.00;;;;;;;13.30;70.78;95762.56;4386936;32;20184;-62
2022/12/31 08:32:28;;;;;;;0.83;0.50;;;;;;;13.27;71.10;95767.72;4386710;32;20180;-62
2022/12/31 08:35:25;;;;;;;0.20;0.20;;;;;;;13.24;70.95;95773.63;4397980;32;20248;-62
2022/12/31 08:38:25;;;;;;;0.00;0.00;;;;;;;13.21;71.73;95771.56;4378673;32;20199;-62
2022/12/31 08:41:12;;;;;;;0.30;0.20;;;;;;;13.26;71.56;95771.47;4372701;32;20188;-62
2022/12/31 08:44:06;;;;;;;0.20;0.20;;;;;;;13.19;71.67;95766.53;4383815;32;20264;-62
2022/12/31 08:47:01;;;;;;;0.20;0.20;;;;;;;13.21;71.61;95767.03;4387350;32;20216;-62
2022/12/31 08:49:32;;;;;;;0.67;0.23;;;;;;;13.19;71.57;95768.41;4346985;32;20260;-62
2022/12/31 08:51:59;;;;;;;0.10;0.10;;;;;;;13.25;70.88;95767.22;4395486;32;20180;-62
2022/12/31 08:54:25;;;;;;;0.20;0.20;;;;;;;13.26;71.01;95769.59;4399923;32;20193;-62
2022/12/31 08:57:18;;;;;;;0.27;0.27;;;;;;;13.25;71.13;95760.03;4376796;32;20177;-62
2022/12/31 09:00:00;;;;;;;0.27;0.27;;;;;;;13.27;70.93;95755.19;4367748;32;20252;-62
2022/12/31 09:02:36;;;;;;;0.23;0.23;;;;;;;13.38;70.52;95755.75;4369028;32;20235;-62
2022/12/31 09:05:14;;;;;;;0.20;0.20;;;;;;;13.38;70.47;95753.06;4377359;32;20215;-62
2022/12/31 09:07:59;;;;;;;0.20;0.13;;;;;;;13.44;69.99;95762.53;4386181;32;20211;-62
2022/12/31 09:10:42;;;;;;;0.20;0.20;;;;;;;13.53;69.81;95771.37;4372697;32;20180;-62
2022/12/31 09:13:31;;;;;;;0.53;0.23;;;;;;;13.63;69.27;95776.50;4382436;32;20268;-61
2022/12/31 09:16:35;;;;;;;0.10;0.10;;;;;;;13.60;69.84;95781.66;4373088;32;20234;-62
2022/12/31 09:19:00;;;;;;;0.30;0.30;;;;;;;13.63;69.65;95786.37;4377620;32;20227;-62
2022/12/31 09:21:25;;;;;;;0.00;0.00;;;;;;;13.63;70.01;95784.50;4373723;32;20350;-62
2022/12/31 09:23:51;;;;;;;0.50;0.50;;;;;;;13.69;69.53;95780.66;4364162;32;20204;-61
2022/12/31 09:26:47;;;;;;;0.30;0.30;;;;;;;13.66;69.76;95772.47;4379178;32;20247;-62
2022/12/31 09:29:19;;;;;;;0.10;0.10;;;;;;;13.70;69.52;95774.22;4376115;32;20177;-61
2022/12/31 09:31:52;;;;;;;0.10;0.10;;;;;;;13.79;69.10;95773.50;4378091;32;20185;-62
2022/12/31 09:34:39;;;;;;;0.03;0.03;;;;;;;13.86;68.70;95784.53;4389748;32;20172;-63
2022/12/31 09:37:15;;;;;;;0.10;0.10;;;;;;;13.93;68.76;95783.00;4381914;32;20196;-62
2022/12/31 09:39:45;;;;;;;1.00;1.00;;;;;;;13.92;68.38;95778.00;4385503;32;20230;-62
2022/12/31 09:42:37;;;;;;;0.47;0.47;;;;;;;13.90;68.72;95778.31;4379096;32;20225;-62
2022/12/31 09:45:31;;;;;;;0.40;0.40;;;;;;;13.92;68.23;95772.66;4371864;32;20192;-62
2022/12/31 09:48:06;;;;;;;0.10;0.10;;;;;;;13.97;67.71;95780.53;4376071;32;20236;-62
2022/12/31 09:50:51;;;;;;;0.07;0.07;;;;;;;13.99;67.33;95767.69;4385542;32;20219;-62
2022/12/31 09:53:45;;;;;;;8.10;0.43;;;;;;;14.00;67.14;95766.59;4384516;32;20180;-62
2022/12/31 09:56:24;;;;;;;0.10;0.10;;;;;;;14.00;67.94;95762.03;4376817;32;20197;-62
2022/12/31 09:59:05;;;;;;;0.13;0.13;;;;;;;14.02;66.82;95759.06;4381058;32;20181;-62
2022/12/31 10:01:43;;;;;;;0.17;0.17;;;;;;;14.01;67.25;95765.50;4377618;32;20173;-62
2022/12/31 10:04:42;;;;;;;1.30;1.17;;;;;;;14.05;66.61;95769.13;4372287;32;20226;-62
2022/12/31 10:07:31;;;;;;;1.17;0.70;;;;;;;14.12;66.46;95766.06;4372914;32;20248;-62
2022/12/31 10:10:00;;;;;;;0.30;0.30;;;;;;;14.13;66.31;95771.09;4381862;32;20218;-62
2022/12/31 10:13:04;;;;;;;0.30;0.30;;;;;;;14.24;65.99;95775.06;4387492;32;20393;-62
2022/12/31 10:16:00;;;;;;;0.67;0.47;;;;;;;14.23;66.30;95760.16;4362703;32;20259;-61
2022/12/31 10:18:26;;;;;;;0.50;0.50;;;;;;;14.35;65.95;95767.56;4367294;32;20229;-61
2022/12/31 10:21:05;;;;;;;0.10;0.10;;;;;;;14.42;65.47;95755.41;4390896;32;20184;-61
2022/12/31 10:24:07;;;;;;;0.83;0.47;;;;;;;14.48;65.18;95760.63;4370189;32;20176;-61
2022/12/31 10:26:50;;;;;;;0.20;0.20;;;;;;;14.52;65.15;95753.59;4367247;32;20226;-62
2022/12/31 10:29:24;;;;;;;0.20;0.20;;;;;;;14.59;65.46;95756.59;4374316;32;20195;-62
2022/12/31 10:31:52;;;;;;;0.30;0.30;;;;;;;14.64;65.84;95751.12;4381841;32;20234;-62
2022/12/31 10:34:48;;;;;;;3.60;0.60;;;;;;;14.78;64.49;95751.78;4380531;32;20196;-62
2022/12/31 10:37:28;;;;;;;0.40;0.40;;;;;;;14.82;64.12;95752.75;4391205;32;20207;-62
2022/12/31 10:40:03;;;;;;;0.17;0.17;;;;;;;14.84;63.96;95747.91;4374173;32;20176;-61
2022/12/31 10:43:08;;;;;;;0.23;0.23;;;;;;;14.88;63.55;95746.19;4382641;32;20214;-62
2022/12/31 10:46:17;;;;;;;0.00;0.00;;;;;;;14.95;62.85;95749.19;4378541;32;20185;-62
2022/12/31 10:49:16;;;;;;;0.13;0.13;;;;;;;14.97;63.19;95744.31;4377316;32;20207;-62
2022/12/31 10:51:54;;;;;;;0.10;0.10;;;;;;;14.91;63.59;95748.25;4370950;32;20199;-61
2022/12/31 10:54:22;;;;;;;0.47;0.20;;;;;;;15.05;62.63;95748.91;4384345;32;20195;-62
2022/12/31 10:57:20;;;;;;;0.23;0.23;;;;;;;15.07;62.68;95748.59;4379477;32;20185;-62
2022/12/31 11:00:15;;;;;;;0.20;0.20;;;;;;;15.01;63.22;95745.25;4370200;32;20222;-62
2022/12/31 11:03:05;;;;;;;0.20;0.20;;;;;;;14.98;63.01;95740.53;4364777;32;20184;-62
2022/12/31 11:05:40;;;;;;;0.73;0.60;;;;;;;14.97;62.99;95736.28;4366024;32;20174;-61
2022/12/31 11:08:46;;;;;;;0.80;0.80;;;;;;;15.02;62.86;95749.50;4372077;32;20237;-62
2022/12/31 11:11:34;;;;;;;0.00;0.00;;;;;;;15.07;62.56;95736.00;4376221;32;20188;-62
2022/12/31 11:14:24;;;;;;;0.20;0.20;;;;;;;15.06;62.72;95741.66;4369946;32;20188;-61
2022/12/31 11:16:49;;;;;;;0.30;0.30;;;;;;;15.03;62.68;95727.03;4364820;32;20230;-62
2022/12/31 11:19:33;;;;;;;0.50;0.23;;;;;;;15.09;62.79;95717.78;4376109;32;20189;-62
2022/12/31 11:22:07;;;;;;;0.10;0.10;;;;;;;15.07;62.47;95724.53;4377198;32;20172;-62
2022/12/31 11:24:54;;;;;;;0.03;0.03;;;;;;;15.15;62.44;95720.31;4373661;32;20209;-62
2022/12/31 11:27:41;;;;;;;0.90;0.90;;;;;;;15.12;62.56;95714.50;4367136;32;20196;-61
2022/12/31 11:30:15;;;;;;;0.70;0.70;;;;;;;15.20;61.96;95717.47;4380939;32;20224;-62
2022/12/31 11:32:40;;;;;;;0.73;0.37;;;;;;;15.22;62.53;95717.94;4373344;32;20180;-62
2022/12/31 11:35:18;;;;;;;0.20;0.20;;;;;;;15.29;61.60;95710.25;4376795;32;20194;-61
2022/12/31 11:37:47;;;;;;;0.10;0.10;;;;;;;15.24;62.03;95694.37;4380323;32;20218;-61
2022/12/31 11:40:38;;;;;;;0.10;0.10;;;;;;;15.27;62.34;95699.09;4372130;32;20177;-62
2022/12/31 11:43:21;;;;;;;0.70;0.53;;;;;;;15.33;61.63;95693.28;4380222;32;20172;-61
2022/12/31 11:46:20;;;;;;;0.10;0.10;;;;;;;15.41;61.18;95700.50;4375802;32;20184;-61
2022/12/31 11:49:19;;;;;;;0.20;0.20;;;;;;;15.47;60.86;95696.59;4377294;32;20220;-62
2022/12/31 11:52:16;;;;;;;0.20;0.20;;;;;;;15.53;60.88;95691.88;4378447;32;20189;-62
2022/12/31 11:55:20;;;;;;;0.03;0.03;;;;;;;15.60;60.59;95683.38;4372098;32;20192;-61
2022/12/31 11:57:51;;;;;;;0.20;0.20;;;;;;;15.62;61.41;95676.62;4377774;32;20188;-62
2022/12/31 12:00:23;;;;;;;0.67;0.30;;;;;;;15.71;60.76;95669.41;4380369;32;20204;-62
2022/12/31 12:03:04;;;;;;;0.20;0.20;;;;;;;15.74;60.53;95674.13;4372197;32;20208;-62
2022/12/31 12:05:29;;;;;;;0.53;0.53;;;;;;;15.73;60.78;95666.41;4399529;32;20199;-62
2022/12/31 12:07:55;;;;;;;0.53;0.53;;;;;;;15.76;61.08;95671.91;4374055;32;20200;-62
2022/12/31 12:10:31;;;;;;;1.20;1.10;;;;;;;15.80;60.54;95669.38;4376083;32;20173;-62
2022/12/31 12:12:58;;;;;;;3.47;3.27;;;;;;;15.81;60.59;95666.38;4392279;32;20219;-62